sensor_id;sensor_type;location;lat;lon;timestamp;temperature;humidity
66140;DHT22;52945;51.908;8.364;2023-05-25T00:00:53;14.30;68.00
66140;DHT22;52945;51.908;8.364;2023-05-25T00:03:53;14.30;67.70
66140;DHT22;52945;51.908;8.364;2023-05-25T00:06:54;14.30;67.80
66140;DHT22;52945;51.908;8.364;2023-05-25T00:09:55;14.20;67.80
66140;DHT22;52945;51.908;8.364;2023-05-25T00:12:55;14.20;68.00
66140;DHT22;52945;51.908;8.364;2023-05-25T00:15:56;14.20;68.40
66140;DHT22;52945;51.908;8.364;2023-05-25T00:18:57;14.20;68.10
66140;DHT22;52945;51.908;8.364;2023-05-25T00:21:58;14.10;68.10
66140;DHT22;52945;51.908;8.364;2023-05-25T00:25:05;14.10;68.30
66140;DHT22;52945;51.908;8.364;2023-05-25T00:28:06;14.00;68.20
66140;DHT22;52945;51.908;8.364;2023-05-25T00:31:06;14.10;68.20
66140;DHT22;52945;51.908;8.364;2023-05-25T00:34:07;14.00;68.00
66140;DHT22;52945;51.908;8.364;2023-05-25T00:37:07;14.00;67.80
66140;DHT22;52945;51.908;8.364;2023-05-25T00:40:09;13.90;68.00
66140;DHT22;52945;51.908;8.364;2023-05-25T00:43:13;13.90;68.30
66140;DHT22;52945;51.908;8.364;2023-05-25T00:46:14;13.80;68.20
66140;DHT22;52945;51.908;8.364;2023-05-25T00:49:17;13.80;68.30
66140;DHT22;52945;51.908;8.364;2023-05-25T00:52:17;13.80;68.40
66140;DHT22;52945;51.908;8.364;2023-05-25T00:55:18;13.70;68.40
66140;DHT22;52945;51.908;8.364;2023-05-25T00:58:23;13.70;68.50
66140;DHT22;52945;51.908;8.364;2023-05-25T01:01:26;13.70;68.30
66140;DHT22;52945;51.908;8.364;2023-05-25T01:04:27;13.60;68.10
66140;DHT22;52945;51.908;8.364;2023-05-25T01:07:29;13.60;68.40
66140;DHT22;52945;51.908;8.364;2023-05-25T01:10:32;13.60;68.50
66140;DHT22;52945;51.908;8.364;2023-05-25T01:13:33;13.60;68.40
66140;DHT22;52945;51.908;8.364;2023-05-25T01:16:34;13.50;68.00
66140;DHT22;52945;51.908;8.364;2023-05-25T01:19:35;13.50;68.20
66140;DHT22;52945;51.908;8.364;2023-05-25T01:22:48;13.50;68.10
66140;DHT22;52945;51.908;8.364;2023-05-25T01:25:53;13.40;68.10
66140;DHT22;52945;51.908;8.364;2023-05-25T01:28:59;13.40;68.10
66140;DHT22;52945;51.908;8.364;2023-05-25T01:32:02;13.40;68.20
66140;DHT22;52945;51.908;8.364;2023-05-25T01:35:03;13.30;68.10
66140;DHT22;52945;51.908;8.364;2023-05-25T01:38:06;13.30;67.80
66140;DHT22;52945;51.908;8.364;2023-05-25T01:41:07;13.20;67.80
66140;DHT22;52945;51.908;8.364;2023-05-25T01:44:08;13.20;67.90
66140;DHT22;52945;51.908;8.364;2023-05-25T01:47:23;13.20;67.90
66140;DHT22;52945;51.908;8.364;2023-05-25T01:51:03;13.20;68.00
66140;DHT22;52945;51.908;8.364;2023-05-25T01:54:17;13.10;68.10
66140;DHT22;52945;51.908;8.364;2023-05-25T01:57:19;13.00;68.30
66140;DHT22;52945;51.908;8.364;2023-05-25T02:00:20;13.00;68.20
66140;DHT22;52945;51.908;8.364;2023-05-25T02:03:21;13.00;68.10
66140;DHT22;52945;51.908;8.364;2023-05-25T02:06:23;13.00;68.30
66140;DHT22;52945;51.908;8.364;2023-05-25T02:09:23;12.90;68.60
66140;DHT22;52945;51.908;8.364;2023-05-25T02:12:24;12.90;68.50
66140;DHT22;52945;51.908;8.364;2023-05-25T02:15:29;12.90;68.20
66140;DHT22;52945;51.908;8.364;2023-05-25T02:18:30;12.90;68.30
66140;DHT22;52945;51.908;8.364;2023-05-25T02:21:31;12.80;68.10
66140;DHT22;52945;51.908;8.364;2023-05-25T02:24:32;12.80;68.20
66140;DHT22;52945;51.908;8.364;2023-05-25T02:27:35;12.80;68.00
66140;DHT22;52945;51.908;8.364;2023-05-25T02:30:35;12.70;68.10
66140;DHT22;52945;51.908;8.364;2023-05-25T02:33:36;12.70;68.10
66140;DHT22;52945;51.908;8.364;2023-05-25T02:36:36;12.70;68.10
66140;DHT22;52945;51.908;8.364;2023-05-25T02:39:38;12.60;68.40
66140;DHT22;52945;51.908;8.364;2023-05-25T02:42:39;12.60;68.40
66140;DHT22;52945;51.908;8.364;2023-05-25T02:45:40;12.60;68.40
66140;DHT22;52945;51.908;8.364;2023-05-25T02:48:41;12.60;68.20
66140;DHT22;52945;51.908;8.364;2023-05-25T02:51:42;12.60;68.10
66140;DHT22;52945;51.908;8.364;2023-05-25T02:54:43;12.50;68.10
66140;DHT22;52945;51.908;8.364;2023-05-25T02:57:43;12.50;68.10
66140;DHT22;52945;51.908;8.364;2023-05-25T03:00:44;12.40;68.60
66140;DHT22;52945;51.908;8.364;2023-05-25T03:03:46;12.30;68.80
66140;DHT22;52945;51.908;8.364;2023-05-25T03:06:51;12.30;68.30
66140;DHT22;52945;51.908;8.364;2023-05-25T03:09:52;12.30;68.40
66140;DHT22;52945;51.908;8.364;2023-05-25T03:12:52;12.30;68.60
66140;DHT22;52945;51.908;8.364;2023-05-25T03:15:53;12.20;68.20
66140;DHT22;52945;51.908;8.364;2023-05-25T03:18:53;12.20;68.40
66140;DHT22;52945;51.908;8.364;2023-05-25T03:21:54;12.20;68.40
66140;DHT22;52945;51.908;8.364;2023-05-25T03:24:54;12.20;68.30
66140;DHT22;52945;51.908;8.364;2023-05-25T03:27:55;12.10;68.40
66140;DHT22;52945;51.908;8.364;2023-05-25T03:30:56;12.10;68.50
66140;DHT22;52945;51.908;8.364;2023-05-25T03:33:57;12.10;68.30
66140;DHT22;52945;51.908;8.364;2023-05-25T03:36:57;12.10;68.40
66140;DHT22;52945;51.908;8.364;2023-05-25T03:39:58;12.00;68.30
66140;DHT22;52945;51.908;8.364;2023-05-25T03:42:58;12.00;68.50
66140;DHT22;52945;51.908;8.364;2023-05-25T03:45:59;12.00;68.50
66140;DHT22;52945;51.908;8.364;2023-05-25T03:48:59;12.00;68.50
66140;DHT22;52945;51.908;8.364;2023-05-25T03:52:00;11.90;68.60
66140;DHT22;52945;51.908;8.364;2023-05-25T03:55:01;11.90;68.30
66140;DHT22;52945;51.908;8.364;2023-05-25T03:58:03;11.90;68.60
66140;DHT22;52945;51.908;8.364;2023-05-25T04:01:04;11.90;69.10
66140;DHT22;52945;51.908;8.364;2023-05-25T04:04:05;11.90;69.00
66140;DHT22;52945;51.908;8.364;2023-05-25T04:07:05;11.90;68.70
66140;DHT22;52945;51.908;8.364;2023-05-25T04:10:06;11.90;68.90
66140;DHT22;52945;51.908;8.364;2023-05-25T04:13:08;11.90;68.90
66140;DHT22;52945;51.908;8.364;2023-05-25T04:16:08;11.80;69.10
66140;DHT22;52945;51.908;8.364;2023-05-25T04:19:11;11.80;69.10
66140;DHT22;52945;51.908;8.364;2023-05-25T04:22:12;11.80;69.10
66140;DHT22;52945;51.908;8.364;2023-05-25T04:25:12;11.80;69.30
66140;DHT22;52945;51.908;8.364;2023-05-25T04:28:13;11.80;69.20
66140;DHT22;52945;51.908;8.364;2023-05-25T04:31:13;11.80;69.30
66140;DHT22;52945;51.908;8.364;2023-05-25T04:34:14;11.90;69.40
66140;DHT22;52945;51.908;8.364;2023-05-25T04:37:15;11.90;69.50
66140;DHT22;52945;51.908;8.364;2023-05-25T04:40:16;11.90;69.50
66140;DHT22;52945;51.908;8.364;2023-05-25T04:43:16;12.00;69.50
66140;DHT22;52945;51.908;8.364;2023-05-25T04:46:18;11.90;69.60
66140;DHT22;52945;51.908;8.364;2023-05-25T04:49:18;11.90;70.00
66140;DHT22;52945;51.908;8.364;2023-05-25T04:52:19;12.00;70.10
66140;DHT22;52945;51.908;8.364;2023-05-25T04:55:19;12.00;70.30
66140;DHT22;52945;51.908;8.364;2023-05-25T04:58:23;12.00;70.60
66140;DHT22;52945;51.908;8.364;2023-05-25T05:01:24;12.00;70.60
66140;DHT22;52945;51.908;8.364;2023-05-25T05:04:25;12.10;70.80
66140;DHT22;52945;51.908;8.364;2023-05-25T05:07:26;12.10;70.80
66140;DHT22;52945;51.908;8.364;2023-05-25T05:10:26;12.10;70.90
66140;DHT22;52945;51.908;8.364;2023-05-25T05:13:27;12.10;71.20
66140;DHT22;52945;51.908;8.364;2023-05-25T05:16:27;12.10;71.20
66140;DHT22;52945;51.908;8.364;2023-05-25T05:19:32;12.20;71.50
66140;DHT22;52945;51.908;8.364;2023-05-25T05:22:33;12.10;71.60
66140;DHT22;52945;51.908;8.364;2023-05-25T05:25:34;12.20;71.40
66140;DHT22;52945;51.908;8.364;2023-05-25T05:28:37;12.20;71.70
66140;DHT22;52945;51.908;8.364;2023-05-25T05:31:37;12.20;71.90
66140;DHT22;52945;51.908;8.364;2023-05-25T05:34:38;12.20;72.00
66140;DHT22;52945;51.908;8.364;2023-05-25T05:37:38;12.20;72.10
66140;DHT22;52945;51.908;8.364;2023-05-25T05:40:39;12.30;72.10
66140;DHT22;52945;51.908;8.364;2023-05-25T05:43:40;12.30;71.80
66140;DHT22;52945;51.908;8.364;2023-05-25T05:46:42;12.30;71.70
66140;DHT22;52945;51.908;8.364;2023-05-25T05:49:43;12.40;71.60
66140;DHT22;52945;51.908;8.364;2023-05-25T05:52:43;12.50;71.50
66140;DHT22;52945;51.908;8.364;2023-05-25T05:55:44;12.50;71.40
66140;DHT22;52945;51.908;8.364;2023-05-25T05:58:44;12.50;71.20
66140;DHT22;52945;51.908;8.364;2023-05-25T06:01:48;12.60;71.20
66140;DHT22;52945;51.908;8.364;2023-05-25T06:04:48;12.60;70.90
66140;DHT22;52945;51.908;8.364;2023-05-25T06:07:49;12.70;70.80
66140;DHT22;52945;51.908;8.364;2023-05-25T06:10:50;12.70;70.50
66140;DHT22;52945;51.908;8.364;2023-05-25T06:13:50;12.60;70.70
66140;DHT22;52945;51.908;8.364;2023-05-25T06:16:51;12.70;70.70
66140;DHT22;52945;51.908;8.364;2023-05-25T06:19:51;12.80;70.80
66140;DHT22;52945;51.908;8.364;2023-05-25T06:22:52;12.90;70.60
66140;DHT22;52945;51.908;8.364;2023-05-25T06:25:53;12.90;70.30
66140;DHT22;52945;51.908;8.364;2023-05-25T06:28:55;12.90;70.40
66140;DHT22;52945;51.908;8.364;2023-05-25T06:31:56;13.10;70.30
66140;DHT22;52945;51.908;8.364;2023-05-25T06:34:57;13.10;70.00
66140;DHT22;52945;51.908;8.364;2023-05-25T06:37:57;13.20;69.70
66140;DHT22;52945;51.908;8.364;2023-05-25T06:40:58;13.20;69.70
66140;DHT22;52945;51.908;8.364;2023-05-25T06:44:04;13.30;69.60
66140;DHT22;52945;51.908;8.364;2023-05-25T06:47:05;13.40;69.60
66140;DHT22;52945;51.908;8.364;2023-05-25T06:50:06;13.30;67.80
66140;DHT22;52945;51.908;8.364;2023-05-25T06:53:07;13.20;68.10
66140;DHT22;52945;51.908;8.364;2023-05-25T06:56:08;13.40;68.20
66140;DHT22;52945;51.908;8.364;2023-05-25T06:59:08;13.40;67.90
66140;DHT22;52945;51.908;8.364;2023-05-25T07:02:09;13.40;67.70
66140;DHT22;52945;51.908;8.364;2023-05-25T07:05:09;13.50;67.70
66140;DHT22;52945;51.908;8.364;2023-05-25T07:08:10;13.50;67.40
66140;DHT22;52945;51.908;8.364;2023-05-25T07:11:11;13.60;67.20
66140;DHT22;52945;51.908;8.364;2023-05-25T07:14:13;13.60;67.00
66140;DHT22;52945;51.908;8.364;2023-05-25T07:17:15;13.60;66.70
66140;DHT22;52945;51.908;8.364;2023-05-25T07:20:16;13.70;66.70
66140;DHT22;52945;51.908;8.364;2023-05-25T07:23:16;13.70;66.60
66140;DHT22;52945;51.908;8.364;2023-05-25T07:26:17;13.70;66.30
66140;DHT22;52945;51.908;8.364;2023-05-25T07:29:20;13.60;66.50
66140;DHT22;52945;51.908;8.364;2023-05-25T07:32:21;13.60;66.50
66140;DHT22;52945;51.908;8.364;2023-05-25T07:35:21;13.70;66.60
66140;DHT22;52945;51.908;8.364;2023-05-25T07:38:22;13.80;66.50
66140;DHT22;52945;51.908;8.364;2023-05-25T07:41:22;13.80;66.40
66140;DHT22;52945;51.908;8.364;2023-05-25T07:44:23;13.80;66.40
66140;DHT22;52945;51.908;8.364;2023-05-25T07:47:23;13.90;66.40
66140;DHT22;52945;51.908;8.364;2023-05-25T07:50:24;13.80;65.90
66140;DHT22;52945;51.908;8.364;2023-05-25T07:53:25;13.90;66.10
66140;DHT22;52945;51.908;8.364;2023-05-25T07:56:25;13.90;66.40
66140;DHT22;52945;51.908;8.364;2023-05-25T07:59:27;13.90;66.00
66140;DHT22;52945;51.908;8.364;2023-05-25T08:02:28;13.80;66.00
66140;DHT22;52945;51.908;8.364;2023-05-25T08:05:29;13.90;66.30
66140;DHT22;52945;51.908;8.364;2023-05-25T08:08:29;13.90;66.20
66140;DHT22;52945;51.908;8.364;2023-05-25T08:11:30;14.00;65.90
66140;DHT22;52945;51.908;8.364;2023-05-25T08:14:31;14.00;65.60
66140;DHT22;52945;51.908;8.364;2023-05-25T08:17:32;14.00;65.10
66140;DHT22;52945;51.908;8.364;2023-05-25T08:20:32;14.10;65.10
66140;DHT22;52945;51.908;8.364;2023-05-25T08:23:33;14.10;64.90
66140;DHT22;52945;51.908;8.364;2023-05-25T08:26:34;14.20;64.80
66140;DHT22;52945;51.908;8.364;2023-05-25T08:29:36;14.20;64.80
66140;DHT22;52945;51.908;8.364;2023-05-25T08:32:36;14.30;65.10
66140;DHT22;52945;51.908;8.364;2023-05-25T08:35:37;14.20;64.80
66140;DHT22;52945;51.908;8.364;2023-05-25T08:38:40;14.30;64.80
66140;DHT22;52945;51.908;8.364;2023-05-25T08:41:42;14.40;64.70
66140;DHT22;52945;51.908;8.364;2023-05-25T08:44:43;14.50;64.90
66140;DHT22;52945;51.908;8.364;2023-05-25T08:47:44;14.50;64.30
66140;DHT22;52945;51.908;8.364;2023-05-25T08:50:48;14.60;64.50
66140;DHT22;52945;51.908;8.364;2023-05-25T08:53:50;14.60;64.10
66140;DHT22;52945;51.908;8.364;2023-05-25T08:56:54;14.60;64.00
66140;DHT22;52945;51.908;8.364;2023-05-25T09:00:06;14.70;64.20
66140;DHT22;52945;51.908;8.364;2023-05-25T09:03:14;14.70;63.00
66140;DHT22;52945;51.908;8.364;2023-05-25T09:06:16;14.80;63.30
66140;DHT22;52945;51.908;8.364;2023-05-25T09:09:16;14.70;62.60
66140;DHT22;52945;51.908;8.364;2023-05-25T09:12:17;14.90;63.50
66140;DHT22;52945;51.908;8.364;2023-05-25T09:15:18;15.00;63.70
66140;DHT22;52945;51.908;8.364;2023-05-25T09:18:19;15.10;63.00
66140;DHT22;52945;51.908;8.364;2023-05-25T09:21:20;15.20;62.80
66140;DHT22;52945;51.908;8.364;2023-05-25T09:24:20;15.30;62.40
66140;DHT22;52945;51.908;8.364;2023-05-25T09:27:22;15.40;62.20
66140;DHT22;52945;51.908;8.364;2023-05-25T09:30:23;15.50;62.20
66140;DHT22;52945;51.908;8.364;2023-05-25T09:33:24;15.50;62.40
66140;DHT22;52945;51.908;8.364;2023-05-25T09:36:25;15.70;61.90
66140;DHT22;52945;51.908;8.364;2023-05-25T09:39:26;15.60;61.00
66140;DHT22;52945;51.908;8.364;2023-05-25T09:42:27;15.70;61.80
66140;DHT22;52945;51.908;8.364;2023-05-25T09:45:28;15.70;61.30
66140;DHT22;52945;51.908;8.364;2023-05-25T09:48:29;15.70;60.90
66140;DHT22;52945;51.908;8.364;2023-05-25T09:51:30;15.80;60.90
66140;DHT22;52945;51.908;8.364;2023-05-25T09:54:35;15.60;60.30
66140;DHT22;52945;51.908;8.364;2023-05-25T09:57:36;15.70;60.50
66140;DHT22;52945;51.908;8.364;2023-05-25T10:00:37;15.70;60.40
66140;DHT22;52945;51.908;8.364;2023-05-25T10:03:45;15.90;61.10
66140;DHT22;52945;51.908;8.364;2023-05-25T10:06:48;15.80;60.30
66140;DHT22;52945;51.908;8.364;2023-05-25T10:09:51;16.00;60.90
66140;DHT22;52945;51.908;8.364;2023-05-25T10:12:54;16.10;59.30
66140;DHT22;52945;51.908;8.364;2023-05-25T10:15:57;16.20;59.70
66140;DHT22;52945;51.908;8.364;2023-05-25T10:19:21;16.30;59.70
66140;DHT22;52945;51.908;8.364;2023-05-25T10:25:39;16.50;58.00
66140;DHT22;52945;51.908;8.364;2023-05-25T10:28:43;16.50;57.10
66140;DHT22;52945;51.908;8.364;2023-05-25T10:31:44;16.70;59.10
66140;DHT22;52945;51.908;8.364;2023-05-25T10:34:45;16.60;56.60
66140;DHT22;52945;51.908;8.364;2023-05-25T10:37:46;16.80;56.90
66140;DHT22;52945;51.908;8.364;2023-05-25T10:40:50;16.90;56.90
66140;DHT22;52945;51.908;8.364;2023-05-25T10:43:52;17.00;57.10
66140;DHT22;52945;51.908;8.364;2023-05-25T10:46:54;16.90;55.50
66140;DHT22;52945;51.908;8.364;2023-05-25T10:49:57;16.90;56.00
66140;DHT22;52945;51.908;8.364;2023-05-25T10:53:04;17.00;55.80
66140;DHT22;52945;51.908;8.364;2023-05-25T10:56:05;17.10;56.10
66140;DHT22;52945;51.908;8.364;2023-05-25T10:59:11;17.20;54.70
66140;DHT22;52945;51.908;8.364;2023-05-25T11:02:14;17.30;55.40
66140;DHT22;52945;51.908;8.364;2023-05-25T11:06:00;17.20;54.30
66140;DHT22;52945;51.908;8.364;2023-05-25T11:08:56;17.00;54.10
66140;DHT22;52945;51.908;8.364;2023-05-25T11:15:13;17.10;54.80
66140;DHT22;52945;51.908;8.364;2023-05-25T11:18:17;17.30;54.40
66140;DHT22;52945;51.908;8.364;2023-05-25T11:24:31;17.20;55.90
66140;DHT22;52945;51.908;8.364;2023-05-25T11:27:40;17.30;56.10
66140;DHT22;52945;51.908;8.364;2023-05-25T11:30:44;17.40;56.10
66140;DHT22;52945;51.908;8.364;2023-05-25T11:33:45;17.60;55.90
66140;DHT22;52945;51.908;8.364;2023-05-25T11:36:47;17.60;55.90
66140;DHT22;52945;51.908;8.364;2023-05-25T11:39:49;17.60;55.70
66140;DHT22;52945;51.908;8.364;2023-05-25T11:42:54;17.50;55.20
66140;DHT22;52945;51.908;8.364;2023-05-25T11:45:56;17.50;55.50
66140;DHT22;52945;51.908;8.364;2023-05-25T11:48:56;17.60;55.50
66140;DHT22;52945;51.908;8.364;2023-05-25T11:51:57;17.70;55.70
66140;DHT22;52945;51.908;8.364;2023-05-25T11:54:58;17.70;55.20
66140;DHT22;52945;51.908;8.364;2023-05-25T11:57:58;17.80;55.70
66140;DHT22;52945;51.908;8.364;2023-05-25T12:01:15;17.90;55.20
66140;DHT22;52945;51.908;8.364;2023-05-25T12:04:16;17.80;53.80
66140;DHT22;52945;51.908;8.364;2023-05-25T12:07:16;17.70;53.50
66140;DHT22;52945;51.908;8.364;2023-05-25T12:10:17;17.80;54.00
66140;DHT22;52945;51.908;8.364;2023-05-25T12:13:18;17.90;54.60
66140;DHT22;52945;51.908;8.364;2023-05-25T12:16:19;17.90;54.60
66140;DHT22;52945;51.908;8.364;2023-05-25T12:19:20;17.90;54.70
66140;DHT22;52945;51.908;8.364;2023-05-25T12:22:21;18.00;54.30
66140;DHT22;52945;51.908;8.364;2023-05-25T12:25:22;18.00;53.30
66140;DHT22;52945;51.908;8.364;2023-05-25T12:28:23;18.10;53.10
66140;DHT22;52945;51.908;8.364;2023-05-25T12:31:26;18.20;53.30
66140;DHT22;52945;51.908;8.364;2023-05-25T12:34:27;18.20;53.30
66140;DHT22;52945;51.908;8.364;2023-05-25T12:37:28;18.20;53.40
66140;DHT22;52945;51.908;8.364;2023-05-25T12:40:29;18.30;53.40
66140;DHT22;52945;51.908;8.364;2023-05-25T12:43:39;18.20;52.60
66140;DHT22;52945;51.908;8.364;2023-05-25T12:46:42;18.20;52.30
66140;DHT22;52945;51.908;8.364;2023-05-25T12:49:45;18.20;53.00
66140;DHT22;52945;51.908;8.364;2023-05-25T12:52:47;18.30;53.00
66140;DHT22;52945;51.908;8.364;2023-05-25T12:55:48;18.40;52.50
66140;DHT22;52945;51.908;8.364;2023-05-25T12:58:48;18.50;53.40
66140;DHT22;52945;51.908;8.364;2023-05-25T13:01:49;18.60;53.40
66140;DHT22;52945;51.908;8.364;2023-05-25T13:04:49;18.60;53.00
66140;DHT22;52945;51.908;8.364;2023-05-25T13:07:50;18.70;51.80
66140;DHT22;52945;51.908;8.364;2023-05-25T13:10:51;18.70;51.10
66140;DHT22;52945;51.908;8.364;2023-05-25T13:13:51;18.70;50.30
66140;DHT22;52945;51.908;8.364;2023-05-25T13:16:53;18.80;51.00
66140;DHT22;52945;51.908;8.364;2023-05-25T13:19:53;18.50;50.10
66140;DHT22;52945;51.908;8.364;2023-05-25T13:22:54;18.50;50.70
66140;DHT22;52945;51.908;8.364;2023-05-25T13:25:55;18.60;50.40
66140;DHT22;52945;51.908;8.364;2023-05-25T13:28:55;18.70;51.30
66140;DHT22;52945;51.908;8.364;2023-05-25T13:31:56;18.70;51.10
66140;DHT22;52945;51.908;8.364;2023-05-25T13:34:57;18.80;51.00
66140;DHT22;52945;51.908;8.364;2023-05-25T13:37:59;18.80;51.20
66140;DHT22;52945;51.908;8.364;2023-05-25T13:41:00;19.00;51.10
66140;DHT22;52945;51.908;8.364;2023-05-25T13:44:00;19.10;50.60
66140;DHT22;52945;51.908;8.364;2023-05-25T13:47:01;19.20;49.70
66140;DHT22;52945;51.908;8.364;2023-05-25T13:50:02;19.40;50.30
66140;DHT22;52945;51.908;8.364;2023-05-25T13:53:02;19.50;50.30
66140;DHT22;52945;51.908;8.364;2023-05-25T13:56:03;19.60;50.10
66140;DHT22;52945;51.908;8.364;2023-05-25T13:59:03;19.60;49.90
66140;DHT22;52945;51.908;8.364;2023-05-25T14:02:04;19.60;50.60
66140;DHT22;52945;51.908;8.364;2023-05-25T14:05:05;19.70;49.60
66140;DHT22;52945;51.908;8.364;2023-05-25T14:08:05;19.60;48.00
66140;DHT22;52945;51.908;8.364;2023-05-25T14:11:07;19.40;47.60
66140;DHT22;52945;51.908;8.364;2023-05-25T14:14:07;19.40;48.80
66140;DHT22;52945;51.908;8.364;2023-05-25T14:17:08;19.30;47.80
66140;DHT22;52945;51.908;8.364;2023-05-25T14:20:08;19.30;48.10
66140;DHT22;52945;51.908;8.364;2023-05-25T14:23:09;19.50;47.60
66140;DHT22;52945;51.908;8.364;2023-05-25T14:26:10;19.50;48.00
66140;DHT22;52945;51.908;8.364;2023-05-25T14:29:11;19.60;47.80
66140;DHT22;52945;51.908;8.364;2023-05-25T14:32:12;19.70;48.80
66140;DHT22;52945;51.908;8.364;2023-05-25T14:35:13;19.70;48.60
66140;DHT22;52945;51.908;8.364;2023-05-25T14:38:14;19.70;48.00
66140;DHT22;52945;51.908;8.364;2023-05-25T14:41:14;19.80;47.10
66140;DHT22;52945;51.908;8.364;2023-05-25T14:44:15;19.70;45.50
66140;DHT22;52945;51.908;8.364;2023-05-25T14:47:16;19.60;46.70
66140;DHT22;52945;51.908;8.364;2023-05-25T14:50:16;19.60;47.80
66140;DHT22;52945;51.908;8.364;2023-05-25T14:53:17;19.70;47.00
66140;DHT22;52945;51.908;8.364;2023-05-25T14:56:18;19.80;47.20
66140;DHT22;52945;51.908;8.364;2023-05-25T14:59:19;19.90;47.50
66140;DHT22;52945;51.908;8.364;2023-05-25T15:02:19;19.90;46.20
66140;DHT22;52945;51.908;8.364;2023-05-25T15:05:20;20.00;47.20
66140;DHT22;52945;51.908;8.364;2023-05-25T15:08:20;19.90;45.70
66140;DHT22;52945;51.908;8.364;2023-05-25T15:11:21;20.00;45.90
66140;DHT22;52945;51.908;8.364;2023-05-25T15:14:22;20.10;45.70
66140;DHT22;52945;51.908;8.364;2023-05-25T15:17:22;20.10;46.30
66140;DHT22;52945;51.908;8.364;2023-05-25T15:20:23;20.20;46.10
66140;DHT22;52945;51.908;8.364;2023-05-25T15:23:23;20.10;44.90
66140;DHT22;52945;51.908;8.364;2023-05-25T15:26:24;20.10;45.00
66140;DHT22;52945;51.908;8.364;2023-05-25T15:29:25;20.30;45.40
66140;DHT22;52945;51.908;8.364;2023-05-25T15:32:26;20.40;45.10
66140;DHT22;52945;51.908;8.364;2023-05-25T15:35:26;20.50;45.20
66140;DHT22;52945;51.908;8.364;2023-05-25T15:38:30;20.60;45.50
66140;DHT22;52945;51.908;8.364;2023-05-25T15:41:31;20.60;44.90
66140;DHT22;52945;51.908;8.364;2023-05-25T15:44:31;20.70;45.30
66140;DHT22;52945;51.908;8.364;2023-05-25T15:47:32;20.70;43.60
66140;DHT22;52945;51.908;8.364;2023-05-25T15:50:32;20.80;44.90
66140;DHT22;52945;51.908;8.364;2023-05-25T15:53:33;20.90;43.70
66140;DHT22;52945;51.908;8.364;2023-05-25T15:56:34;21.10;43.40
66140;DHT22;52945;51.908;8.364;2023-05-25T15:59:35;21.20;42.80
66140;DHT22;52945;51.908;8.364;2023-05-25T16:02:35;21.20;41.70
66140;DHT22;52945;51.908;8.364;2023-05-25T16:05:36;21.30;42.50
66140;DHT22;52945;51.908;8.364;2023-05-25T16:08:36;21.50;42.80
66140;DHT22;52945;51.908;8.364;2023-05-25T16:11:37;21.70;43.00
66140;DHT22;52945;51.908;8.364;2023-05-25T16:14:37;21.70;41.80
66140;DHT22;52945;51.908;8.364;2023-05-25T16:17:38;21.60;41.60
66140;DHT22;52945;51.908;8.364;2023-05-25T16:20:39;21.50;41.00
66140;DHT22;52945;51.908;8.364;2023-05-25T16:23:40;21.70;42.90
66140;DHT22;52945;51.908;8.364;2023-05-25T16:26:40;21.70;41.60
66140;DHT22;52945;51.908;8.364;2023-05-25T16:29:41;21.80;42.10
66140;DHT22;52945;51.908;8.364;2023-05-25T16:32:41;21.90;41.50
66140;DHT22;52945;51.908;8.364;2023-05-25T16:35:42;21.80;41.00
66140;DHT22;52945;51.908;8.364;2023-05-25T16:38:42;21.70;42.00
66140;DHT22;52945;51.908;8.364;2023-05-25T16:41:43;21.70;42.20
66140;DHT22;52945;51.908;8.364;2023-05-25T16:44:44;21.70;42.20
66140;DHT22;52945;51.908;8.364;2023-05-25T16:47:44;21.40;42.60
66140;DHT22;52945;51.908;8.364;2023-05-25T16:50:45;21.30;43.00
66140;DHT22;52945;51.908;8.364;2023-05-25T16:53:45;21.20;43.90
66140;DHT22;52945;51.908;8.364;2023-05-25T16:56:46;21.20;43.40
66140;DHT22;52945;51.908;8.364;2023-05-25T16:59:46;21.10;44.00
66140;DHT22;52945;51.908;8.364;2023-05-25T17:02:47;21.10;44.00
66140;DHT22;52945;51.908;8.364;2023-05-25T17:05:48;21.00;44.30
66140;DHT22;52945;51.908;8.364;2023-05-25T17:08:48;21.00;43.80
66140;DHT22;52945;51.908;8.364;2023-05-25T17:11:49;21.00;43.70
66140;DHT22;52945;51.908;8.364;2023-05-25T17:14:49;21.00;43.90
66140;DHT22;52945;51.908;8.364;2023-05-25T17:17:50;21.00;44.10
66140;DHT22;52945;51.908;8.364;2023-05-25T17:20:50;20.90;43.70
66140;DHT22;52945;51.908;8.364;2023-05-25T17:23:51;20.80;43.80
66140;DHT22;52945;51.908;8.364;2023-05-25T17:26:51;20.80;44.60
66140;DHT22;52945;51.908;8.364;2023-05-25T17:29:52;20.70;44.30
66140;DHT22;52945;51.908;8.364;2023-05-25T17:32:53;20.70;44.40
66140;DHT22;52945;51.908;8.364;2023-05-25T17:35:53;20.70;44.80
66140;DHT22;52945;51.908;8.364;2023-05-25T17:38:54;20.70;45.00
66140;DHT22;52945;51.908;8.364;2023-05-25T17:41:54;20.70;44.90
66140;DHT22;52945;51.908;8.364;2023-05-25T17:44:55;20.50;44.80
66140;DHT22;52945;51.908;8.364;2023-05-25T17:47:56;20.50;45.50
66140;DHT22;52945;51.908;8.364;2023-05-25T17:50:57;20.30;45.30
66140;DHT22;52945;51.908;8.364;2023-05-25T17:53:58;20.20;45.70
66140;DHT22;52945;51.908;8.364;2023-05-25T17:56:58;20.20;46.00
66140;DHT22;52945;51.908;8.364;2023-05-25T17:59:59;20.10;46.50
66140;DHT22;52945;51.908;8.364;2023-05-25T18:02:59;20.20;46.60
66140;DHT22;52945;51.908;8.364;2023-05-25T18:06:00;20.00;46.60
66140;DHT22;52945;51.908;8.364;2023-05-25T18:09:00;19.80;46.30
66140;DHT22;52945;51.908;8.364;2023-05-25T18:12:01;19.70;46.60
66140;DHT22;52945;51.908;8.364;2023-05-25T18:15:03;19.60;46.70
66140;DHT22;52945;51.908;8.364;2023-05-25T18:18:03;19.60;46.90
66140;DHT22;52945;51.908;8.364;2023-05-25T18:21:05;19.70;47.00
66140;DHT22;52945;51.908;8.364;2023-05-25T18:24:06;19.70;47.40
66140;DHT22;52945;51.908;8.364;2023-05-25T18:27:09;19.70;48.00
66140;DHT22;52945;51.908;8.364;2023-05-25T18:30:10;19.70;48.20
66140;DHT22;52945;51.908;8.364;2023-05-25T18:33:11;19.70;48.50
66140;DHT22;52945;51.908;8.364;2023-05-25T18:36:11;19.70;47.90
66140;DHT22;52945;51.908;8.364;2023-05-25T18:39:12;19.70;47.30
66140;DHT22;52945;51.908;8.364;2023-05-25T18:42:12;19.60;47.00
66140;DHT22;52945;51.908;8.364;2023-05-25T18:45:13;19.60;46.80
66140;DHT22;52945;51.908;8.364;2023-05-25T18:48:14;19.50;46.40
66140;DHT22;52945;51.908;8.364;2023-05-25T18:51:14;19.50;46.80
66140;DHT22;52945;51.908;8.364;2023-05-25T18:54:16;19.40;46.70
66140;DHT22;52945;51.908;8.364;2023-05-25T18:57:17;19.40;47.20
66140;DHT22;52945;51.908;8.364;2023-05-25T19:00:17;19.30;46.80
66140;DHT22;52945;51.908;8.364;2023-05-25T19:03:18;19.20;48.00
66140;DHT22;52945;51.908;8.364;2023-05-25T19:06:19;19.20;47.70
66140;DHT22;52945;51.908;8.364;2023-05-25T19:09:19;19.20;48.40
66140;DHT22;52945;51.908;8.364;2023-05-25T19:12:20;19.20;48.50
66140;DHT22;52945;51.908;8.364;2023-05-25T19:15:20;19.10;48.40